Time;durP1;ratioP1;P1;durP2;ratioP2;P2;SDS_P1;SDS_P2;PMS_P1;PMS_P2;Temp;Humidity;BMP_temperature;BMP_pressure;BME280_temperature;BME280_humidity;BME280_pressure;Samples;Min_cycle;Max_cycle;Signal;HPM_P1;HPM_P2
2023/05/29 00:00:09;;;;;;;10.85;5.70;;;15.70;1.00;;;;;;7364016;19;20139;-67
2023/05/29 00:02:39;;;;;;;12.88;5.78;;;15.70;1.00;;;;;;7367446;19;20018;-68
2023/05/29 00:05:11;;;;;;;9.13;5.53;;;15.60;1.00;;;;;;7366119;19;20073;-68
2023/05/29 00:07:44;;;;;;;7.65;5.03;;;15.60;1.00;;;;;;7392141;19;20086;-68
2023/05/29 00:10:15;;;;;;;9.50;5.55;;;15.50;1.00;;;;;;7364466;19;20031;-68
2023/05/29 00:12:45;;;;;;;10.18;5.50;;;15.40;1.00;;;;;;7366496;19;20043;-69
2023/05/29 00:15:15;;;;;;;10.15;5.60;;;15.30;1.00;;;;;;7368292;19;20093;-69
2023/05/29 00:17:46;;;;;;;13.65;6.63;;;15.30;1.00;;;;;;7369657;19;20082;-69
2023/05/29 00:20:16;;;;;;;13.88;5.80;;;15.20;1.00;;;;;;7367818;19;20395;-69
2023/05/29 00:22:49;;;;;;;8.75;5.10;;;15.30;1.00;;;;;;7388384;19;20007;-70
2023/05/29 00:25:20;;;;;;;12.07;6.03;;;15.30;1.00;;;;;;7387322;19;20015;-69
2023/05/29 00:27:50;;;;;;;14.07;6.05;;;15.20;1.00;;;;;;7366617;19;20014;-69
2023/05/29 00:30:20;;;;;;;10.30;5.30;;;15.10;1.00;;;;;;7364108;19;20010;-69
2023/05/29 00:32:51;;;;;;;9.77;6.20;;;15.10;1.00;;;;;;7366147;19;20399;-69
2023/05/29 00:35:22;;;;;;;13.68;5.82;;;15.10;1.00;;;;;;7366303;19;20099;-69
2023/05/29 00:37:54;;;;;;;9.77;5.50;;;15.00;1.00;;;;;;7366490;19;20014;-69
2023/05/29 00:40:24;;;;;;;10.63;5.75;;;15.00;1.00;;;;;;7385135;19;20014;-69
2023/05/29 00:42:54;;;;;;;12.93;6.00;;;14.90;1.00;;;;;;7365530;19;20022;-69
2023/05/29 00:45:26;;;;;;;13.32;5.78;;;14.90;1.00;;;;;;7367847;19;20553;-69
2023/05/29 00:47:56;;;;;;;11.90;6.13;;;14.80;1.00;;;;;;7367004;19;20038;-69
2023/05/29 00:50:26;;;;;;;9.02;5.60;;;14.80;1.00;;;;;;7364060;19;20511;-69
2023/05/29 00:53:00;;;;;;;11.50;5.70;;;14.60;1.00;;;;;;7365995;19;20018;-69
2023/05/29 00:55:30;;;;;;;10.73;5.70;;;14.80;1.00;;;;;;7387438;19;20030;-69
2023/05/29 00:58:00;;;;;;;10.52;5.88;;;14.80;1.00;;;;;;7368737;19;20047;-69
2023/05/29 01:00:32;;;;;;;9.52;5.85;;;14.70;1.00;;;;;;7363344;19;20038;-69
2023/05/29 01:03:05;;;;;;;11.35;6.22;;;14.70;1.00;;;;;;7365739;19;20010;-68
2023/05/29 01:05:37;;;;;;;12.00;5.95;;;14.60;1.00;;;;;;7364982;19;20014;-69
2023/05/29 01:08:10;;;;;;;11.07;6.05;;;14.60;1.00;;;;;;7368889;19;20015;-69
2023/05/29 01:10:42;;;;;;;12.25;5.90;;;14.60;1.00;;;;;;7386146;19;20022;-68
2023/05/29 01:13:20;;;;;;;9.80;5.93;;;14.50;1.00;;;;;;7369531;19;20086;-69
2023/05/29 01:15:57;;;;;;;10.52;5.80;;;14.40;1.00;;;;;;7367156;19;20021;-69
2023/05/29 01:18:37;;;;;;;11.27;5.40;;;14.40;1.00;;;;;;7368381;19;20358;-69
2023/05/29 01:21:13;;;;;;;8.45;5.43;;;14.40;1.00;;;;;;7363503;19;20019;-69
2023/05/29 01:24:02;;;;;;;11.43;5.70;;;14.40;1.00;;;;;;7363835;19;20453;-69
2023/05/29 01:26:54;;;;;;;8.88;5.30;;;14.30;1.00;;;;;;7364921;19;20014;-69
2023/05/29 01:29:45;;;;;;;10.57;5.35;;;14.30;1.00;;;;;;7363846;19;20380;-69
2023/05/29 01:32:15;;;;;;;9.13;5.75;;;14.30;1.00;;;;;;7364749;19;20015;-69
2023/05/29 01:34:45;;;;;;;9.73;5.65;;;14.30;1.00;;;;;;7384906;19;20077;-69
2023/05/29 01:37:15;;;;;;;7.93;5.10;;;14.20;1.00;;;;;;7364398;19;20082;-69
2023/05/29 01:39:45;;;;;;;7.97;5.07;;;14.10;1.00;;;;;;7362302;19;20019;-68
2023/05/29 01:42:18;;;;;;;8.40;5.32;;;14.10;1.00;;;;;;7364552;19;20047;-68
2023/05/29 01:44:49;;;;;;;10.80;6.05;;;14.10;1.00;;;;;;7364969;19;20022;-68
2023/05/29 01:47:19;;;;;;;8.20;5.85;;;14.20;1.00;;;;;;7364281;19;20523;-69
2023/05/29 01:49:52;;;;;;;7.55;5.30;;;14.20;1.00;;;;;;7363787;19;20026;-69
2023/05/29 01:52:22;;;;;;;9.10;5.22;;;14.10;1.00;;;;;;7385697;19;20031;-68
2023/05/29 01:54:52;;;;;;;10.35;5.93;;;14.10;1.00;;;;;;7362480;19;20018;-68
2023/05/29 01:57:25;;;;;;;9.07;5.63;;;14.00;1.00;;;;;;7366494;19;20557;-68
2023/05/29 01:59:55;;;;;;;13.30;6.07;;;13.90;1.00;;;;;;7362170;19;20040;-68
2023/05/29 02:02:25;;;;;;;8.23;5.70;;;13.90;1.00;;;;;;7363475;19;20080;-68
2023/05/29 02:04:55;;;;;;;7.90;5.60;;;13.80;1.00;;;;;;7362332;19;20019;-68
2023/05/29 02:07:25;;;;;;;11.38;5.60;;;13.80;1.00;;;;;;7386956;19;20026;-68
2023/05/29 02:09:55;;;;;;;10.93;6.00;;;13.90;1.00;;;;;;7364813;19;20040;-68
2023/05/29 02:12:28;;;;;;;8.52;5.35;;;13.80;1.00;;;;;;7365554;19;20027;-68
2023/05/29 02:14:58;;;;;;;8.75;5.85;;;13.80;1.00;;;;;;7361863;19;20134;-69
2023/05/29 02:17:28;;;;;;;12.30;5.38;;;13.80;1.00;;;;;;7362515;19;20010;-68
2023/05/29 02:19:58;;;;;;;10.25;5.70;;;13.80;1.00;;;;;;7361553;19;20051;-68
2023/05/29 02:22:28;;;;;;;9.63;5.78;;;13.80;1.00;;;;;;7383864;19;20090;-69
2023/05/29 02:24:58;;;;;;;9.45;5.53;;;13.80;1.00;;;;;;7361495;19;20111;-68
2023/05/29 02:27:30;;;;;;;10.32;5.75;;;13.80;1.00;;;;;;7363216;19;20036;-68
2023/05/29 02:30:00;;;;;;;8.75;5.30;;;13.70;1.00;;;;;;7361658;19;20494;-69
2023/05/29 02:32:31;;;;;;;12.02;5.63;;;13.60;1.00;;;;;;7363121;19;20014;-68
2023/05/29 02:35:01;;;;;;;8.95;5.85;;;13.50;1.00;;;;;;7362101;19;20014;-68
2023/05/29 02:37:31;;;;;;;8.35;5.25;;;13.40;1.00;;;;;;7384080;19;20039;-68
2023/05/29 02:40:00;;;;;;;9.95;6.22;;;13.30;1.00;;;;;;7360127;19;20431;-68
2023/05/29 02:42:33;;;;;;;10.35;5.47;;;13.40;1.00;;;;;;7361588;19;20014;-68
2023/05/29 02:45:03;;;;;;;7.25;5.07;;;13.40;1.00;;;;;;7364561;19;20010;-68
2023/05/29 02:47:33;;;;;;;10.70;5.63;;;13.30;1.00;;;;;;7362663;19;20048;-68
2023/05/29 02:50:04;;;;;;;8.10;4.63;;;13.30;1.00;;;;;;7360773;19;20022;-69
2023/05/29 02:52:36;;;;;;;9.15;5.28;;;13.30;1.00;;;;;;7383374;19;20124;-68
2023/05/29 02:55:07;;;;;;;8.65;5.03;;;13.30;1.00;;;;;;7360430;19;20037;-69
2023/05/29 02:57:40;;;;;;;7.82;4.80;;;13.40;1.00;;;;;;7364704;19;20591;-69
2023/05/29 03:00:11;;;;;;;8.88;5.00;;;13.30;1.00;;;;;;7359844;19;20135;-69
2023/05/29 03:02:41;;;;;;;7.05;4.88;;;13.40;1.00;;;;;;7362212;19;20071;-69
2023/05/29 03:05:11;;;;;;;8.60;4.75;;;13.20;1.00;;;;;;7365033;19;20122;-67
2023/05/29 03:07:41;;;;;;;8.70;4.90;;;13.20;1.00;;;;;;7387987;19;20559;-68
2023/05/29 03:10:12;;;;;;;10.57;5.45;;;13.00;1.00;;;;;;7363452;19;20015;-69
2023/05/29 03:12:44;;;;;;;9.45;5.18;;;13.10;1.00;;;;;;7361380;19;20015;-69
2023/05/29 03:15:14;;;;;;;11.00;5.63;;;13.20;1.00;;;;;;7360779;19;20074;-69
2023/05/29 03:17:44;;;;;;;7.35;5.03;;;13.00;1.00;;;;;;7361999;19;20042;-67
2023/05/29 03:20:15;;;;;;;12.45;6.05;;;13.00;1.00;;;;;;7359868;19;20010;-67
2023/05/29 03:22:45;;;;;;;12.13;5.60;;;12.90;1.00;;;;;;7382240;19;20082;-67
2023/05/29 03:25:15;;;;;;;12.18;5.78;;;13.00;1.00;;;;;;7360371;19;20512;-67
2023/05/29 03:27:48;;;;;;;8.77;4.68;;;13.00;1.00;;;;;;7365665;19;20520;-67
2023/05/29 03:30:19;;;;;;;9.00;5.20;;;13.00;1.00;;;;;;7366960;19;20022;-67
2023/05/29 03:32:49;;;;;;;7.15;4.95;;;12.90;1.00;;;;;;7369003;19;20015;-67
2023/05/29 03:35:19;;;;;;;8.75;5.32;;;12.90;1.00;;;;;;7367876;19;20025;-68
2023/05/29 03:37:49;;;;;;;9.88;5.30;;;13.00;1.00;;;;;;7375681;19;20035;-68
2023/05/29 03:40:19;;;;;;;8.57;4.85;;;13.10;1.00;;;;;;7387014;19;20538;-68
2023/05/29 03:42:51;;;;;;;8.00;4.65;;;12.90;1.00;;;;;;7367110;19;20015;-68
2023/05/29 03:45:21;;;;;;;9.13;5.38;;;13.00;1.00;;;;;;7367365;19;20022;-68
2023/05/29 03:47:51;;;;;;;7.75;4.85;;;13.10;1.00;;;;;;7368137;19;20014;-68
2023/05/29 03:50:21;;;;;;;9.65;4.70;;;13.70;1.00;;;;;;7371194;19;20019;-68
2023/05/29 03:52:51;;;;;;;10.77;5.32;;;14.10;1.00;;;;;;7389308;19;20070;-68
2023/05/29 03:55:22;;;;;;;7.88;5.18;;;14.50;1.00;;;;;;7367621;19;20039;-68
2023/05/29 03:57:55;;;;;;;7.75;4.78;;;14.30;1.00;;;;;;7368967;19;20036;-68
2023/05/29 04:00:25;;;;;;;7.45;5.00;;;14.40;1.00;;;;;;7367821;19;20014;-68
2023/05/29 04:02:55;;;;;;;10.43;5.20;;;14.70;1.00;;;;;;7370317;19;20093;-68
2023/05/29 04:05:25;;;;;;;9.88;4.43;;;15.00;1.00;;;;;;7370244;19;20010;-69
2023/05/29 04:07:55;;;;;;;9.13;4.78;;;15.30;1.00;;;;;;7392815;19;20011;-68
2023/05/29 04:10:44;;;;;;;8.02;4.63;;;15.40;1.00;;;;;;7364435;19;20015;-68
2023/05/29 04:13:16;;;;;;;8.38;4.70;;;15.90;1.00;;;;;;7366355;19;20664;-68
2023/05/29 04:15:47;;;;;;;8.90;5.00;;;16.70;1.00;;;;;;7367515;19;20018;-68
2023/05/29 04:18:17;;;;;;;7.65;4.80;;;17.20;1.00;;;;;;7367478;19;20036;-68
2023/05/29 04:20:47;;;;;;;6.63;4.28;;;17.00;1.00;;;;;;7364654;19;20364;-68
2023/05/29 04:23:17;;;;;;;7.22;4.45;;;17.30;1.00;;;;;;7387549;19;20470;-68
2023/05/29 04:25:47;;;;;;;8.48;4.38;;;17.40;1.00;;;;;;7366795;19;20490;-68
2023/05/29 04:28:21;;;;;;;7.85;4.47;;;17.70;1.00;;;;;;7366754;19;20019;-68
2023/05/29 04:30:51;;;;;;;10.55;4.70;;;17.20;1.00;;;;;;7367661;19;20010;-68
2023/05/29 04:33:23;;;;;;;11.77;4.55;;;17.50;1.00;;;;;;7365764;19;20019;-69
2023/05/29 04:35:53;;;;;;;5.78;4.10;;;18.50;1.00;;;;;;7366702;19;20843;-68
2023/05/29 04:38:25;;;;;;;8.63;4.07;;;18.60;1.00;;;;;;7364712;19;20018;-69
2023/05/29 04:40:58;;;;;;;7.65;4.38;;;19.20;1.00;;;;;;7385142;19;20679;-68
2023/05/29 04:43:31;;;;;;;6.07;4.63;;;18.90;1.00;;;;;;7364006;19;20031;-68
2023/05/29 04:46:02;;;;;;;7.28;4.55;;;19.10;1.00;;;;;;7366822;19;20478;-68
2023/05/29 04:48:32;;;;;;;10.20;4.25;;;19.20;1.00;;;;;;7365270;19;20121;-68
2023/05/29 04:51:02;;;;;;;7.47;4.40;;;19.20;1.00;;;;;;7363551;19;20146;-68
2023/05/29 04:53:32;;;;;;;4.50;3.83;;;20.10;1.00;;;;;;7365244;19;20035;-69
2023/05/29 04:56:02;;;;;;;7.28;4.47;;;19.50;1.00;;;;;;7387917;19;20014;-69
2023/05/29 04:58:35;;;;;;;6.30;3.80;;;18.90;1.00;;;;;;7367579;19;20314;-68
2023/05/29 05:01:05;;;;;;;6.50;4.55;;;19.40;1.00;;;;;;7368048;19;20036;-68
2023/05/29 05:03:35;;;;;;;8.02;4.13;;;20.00;1.00;;;;;;7364836;19;20014;-69
2023/05/29 05:06:07;;;;;;;6.68;3.80;;;19.70;1.00;;;;;;7365926;19;20017;-69
2023/05/29 05:08:37;;;;;;;5.90;3.90;;;20.00;1.00;;;;;;7369051;19;20014;-68
2023/05/29 05:11:07;;;;;;;6.45;4.07;;;20.80;1.00;;;;;;7384348;19;20031;-69
2023/05/29 05:13:40;;;;;;;6.85;3.60;;;20.00;1.00;;;;;;7363787;19;20454;-68
2023/05/29 05:16:10;;;;;;;7.70;4.40;;;20.10;1.00;;;;;;7364863;19;20513;-68
2023/05/29 05:18:40;;;;;;;7.15;4.55;;;19.90;1.00;;;;;;7364735;19;20014;-68
2023/05/29 05:21:10;;;;;;;6.35;3.80;;;19.80;1.00;;;;;;7363358;19;20010;-68
2023/05/29 05:23:40;;;;;;;9.57;4.63;;;20.10;1.00;;;;;;7364189;19;20049;-68
2023/05/29 05:26:26;;;;;;;7.40;3.60;;;20.60;1.00;;;;;;7364695;19;20496;-69
2023/05/29 05:28:59;;;;;;;8.00;4.10;;;21.00;1.00;;;;;;7386444;19;20474;-68
2023/05/29 05:31:29;;;;;;;9.50;4.20;;;19.70;1.00;;;;;;7363783;19;20511;-68
2023/05/29 05:33:59;;;;;;;10.05;4.38;;;20.30;1.00;;;;;;7363649;19;20014;-68
2023/05/29 05:36:31;;;;;;;7.57;4.13;;;19.80;1.00;;;;;;7365646;19;20014;-68
2023/05/29 05:39:01;;;;;;;7.75;4.53;;;19.90;1.00;;;;;;7365372;19;20038;-68
2023/05/29 05:41:31;;;;;;;8.68;4.72;;;19.60;1.00;;;;;;7364235;19;20025;-68
2023/05/29 05:44:03;;;;;;;7.32;4.15;;;20.10;1.00;;;;;;7386637;19;20018;-68
2023/05/29 05:46:33;;;;;;;5.72;4.15;;;20.50;1.00;;;;;;7365066;19;20411;-68
2023/05/29 05:49:03;;;;;;;6.25;4.00;;;19.90;1.00;;;;;;7362523;19;20097;-68
2023/05/29 05:51:33;;;;;;;7.10;4.53;;;19.30;1.00;;;;;;7363449;19;20038;-68
2023/05/29 05:54:03;;;;;;;7.35;4.38;;;19.20;1.00;;;;;;7366805;19;20014;-68
2023/05/29 05:56:33;;;;;;;7.82;4.80;;;19.40;1.00;;;;;;7366182;19;20018;-69
2023/05/29 05:59:06;;;;;;;7.40;4.35;;;18.70;1.00;;;;;;7388679;19;20400;-68
2023/05/29 06:01:37;;;;;;;7.47;4.28;;;17.50;1.00;;;;;;7362556;19;20018;-68
2023/05/29 06:04:07;;;;;;;7.20;4.18;;;18.80;1.00;;;;;;7362186;19;20486;-68
2023/05/29 06:06:37;;;;;;;8.02;4.65;;;19.00;1.00;;;;;;7364533;19;20007;-68
2023/05/29 06:09:07;;;;;;;9.00;4.50;;;18.50;1.00;;;;;;7362874;19;20043;-68
2023/05/29 06:11:37;;;;;;;8.98;4.82;;;18.20;1.00;;;;;;7363194;19;20505;-68
2023/05/29 06:14:09;;;;;;;7.97;3.92;;;17.50;1.00;;;;;;7386428;19;20014;-67
2023/05/29 06:16:39;;;;;;;8.30;4.32;;;17.10;1.00;;;;;;7365366;19;20038;-68
2023/05/29 06:19:10;;;;;;;8.02;4.50;;;17.70;1.00;;;;;;7364590;19;20019;-68
2023/05/29 06:21:40;;;;;;;7.80;4.30;;;18.00;1.00;;;;;;7364413;19;20121;-68
2023/05/29 06:24:10;;;;;;;8.30;4.60;;;18.70;1.00;;;;;;7364954;19;20010;-68
2023/05/29 06:26:40;;;;;;;7.13;4.40;;;19.30;1.00;;;;;;7362945;19;20059;-68
2023/05/29 06:29:13;;;;;;;8.52;4.53;;;19.70;1.00;;;;;;7384986;19;20007;-69
2023/05/29 06:31:43;;;;;;;6.35;4.60;;;19.40;1.00;;;;;;7362056;19;20022;-69
2023/05/29 06:34:13;;;;;;;6.97;4.47;;;19.10;1.00;;;;;;7361218;19;20014;-68
2023/05/29 06:36:43;;;;;;;7.72;4.32;;;19.30;1.00;;;;;;7362510;19;20015;-68
2023/05/29 06:39:13;;;;;;;6.50;3.90;;;18.40;1.00;;;;;;7363640;19;20495;-68
2023/05/29 06:41:43;;;;;;;6.35;3.83;;;18.60;1.00;;;;;;7361879;19;20089;-68
2023/05/29 06:44:15;;;;;;;6.03;3.40;;;19.20;1.00;;;;;;7382616;19;20029;-68
2023/05/29 06:46:45;;;;;;;6.88;4.35;;;18.30;1.00;;;;;;7362180;19;20503;-69
2023/05/29 06:49:15;;;;;;;8.18;4.10;;;17.50;1.00;;;;;;7362938;19;20010;-68
2023/05/29 06:51:47;;;;;;;7.38;3.97;;;17.50;1.00;;;;;;7363355;19;20471;-68
2023/05/29 06:54:16;;;;;;;6.70;3.92;;;17.60;1.00;;;;;;7364054;19;20085;-68
2023/05/29 06:56:46;;;;;;;6.18;4.10;;;17.90;1.00;;;;;;7365075;19;20034;-68
2023/05/29 06:59:33;;;;;;;8.25;4.45;;;17.80;1.00;;;;;;7362018;19;20014;-68
2023/05/29 07:02:03;;;;;;;7.18;4.18;;;17.70;1.00;;;;;;7382125;19;20018;-68
2023/05/29 07:04:33;;;;;;;7.85;4.30;;;17.60;1.00;;;;;;7359499;19;20780;-68
2023/05/29 07:07:03;;;;;;;6.50;4.05;;;17.20;1.00;;;;;;7362954;19;20032;-68
2023/05/29 07:09:33;;;;;;;8.32;3.78;;;17.80;1.00;;;;;;7360491;19;20453;-68
2023/05/29 07:12:03;;;;;;;8.88;4.55;;;18.20;1.00;;;;;;7361268;19;20670;-68
2023/05/29 07:14:35;;;;;;;6.95;3.78;;;18.30;1.00;;;;;;7359941;19;20435;-69
2023/05/29 07:17:05;;;;;;;6.22;4.13;;;18.40;1.00;;;;;;7382337;19;20097;-68
2023/05/29 07:19:36;;;;;;;7.57;4.53;;;18.00;1.00;;;;;;7359476;19;20017;-69
2023/05/29 07:22:06;;;;;;;7.57;4.28;;;18.20;1.00;;;;;;7361390;19;20094;-68
2023/05/29 07:24:36;;;;;;;7.88;4.32;;;18.60;1.00;;;;;;7359535;19;20011;-68
2023/05/29 07:27:07;;;;;;;9.35;4.03;;;18.80;1.00;;;;;;7361050;19;20482;-68
2023/05/29 07:29:39;;;;;;;7.55;4.03;;;19.30;1.00;;;;;;7362353;19;20026;-68
2023/05/29 07:32:09;;;;;;;7.20;4.28;;;19.00;1.00;;;;;;7381961;19;20024;-68
2023/05/29 07:34:40;;;;;;;7.50;4.15;;;18.70;1.00;;;;;;7359191;19;20021;-68
2023/05/29 07:37:09;;;;;;;6.90;4.22;;;18.70;1.00;;;;;;7360310;19;20097;-68
2023/05/29 07:39:39;;;;;;;6.18;3.85;;;19.20;1.00;;;;;;7358951;19;20068;-68
2023/05/29 07:42:09;;;;;;;6.50;4.10;;;18.80;1.00;;;;;;7360545;19;20019;-68
2023/05/29 07:44:43;;;;;;;6.88;4.00;;;19.40;1.00;;;;;;7359681;19;20043;-68
2023/05/29 07:47:13;;;;;;;6.45;4.00;;;19.80;1.00;;;;;;7386320;19;20023;-68
2023/05/29 07:49:43;;;;;;;6.60;3.88;;;19.40;1.00;;;;;;7346760;19;20597;-68
2023/05/29 07:52:13;;;;;;;8.38;4.43;;;19.00;1.00;;;;;;7363235;19;20086;-68
2023/05/29 07:54:42;;;;;;;8.68;4.25;;;19.40;1.00;;;;;;7359276;19;20471;-68
2023/05/29 07:57:13;;;;;;;7.97;3.97;;;19.20;1.00;;;;;;7362393;19;20015;-68
2023/05/29 07:59:49;;;;;;;6.75;3.88;;;19.20;1.00;;;;;;7359954;19;20019;-68
2023/05/29 08:02:19;;;;;;;8.38;4.47;;;19.10;1.00;;;;;;7380987;19;20220;-69
2023/05/29 08:04:50;;;;;;;5.50;3.38;;;19.60;1.00;;;;;;7358798;19;20018;-68
2023/05/29 08:07:20;;;;;;;6.00;3.80;;;19.30;1.00;;;;;;7361870;19;20015;-69
2023/05/29 08:09:50;;;;;;;7.57;4.40;;;20.00;1.00;;;;;;7358458;19;20039;-69
2023/05/29 08:12:20;;;;;;;8.57;4.13;;;20.30;1.00;;;;;;7359973;19;20014;-69
2023/05/29 08:14:53;;;;;;;8.20;3.85;;;20.70;1.00;;;;;;7365737;19;20356;-68
2023/05/29 08:17:23;;;;;;;6.47;3.70;;;20.80;1.00;;;;;;7388725;19;20018;-69
2023/05/29 08:19:53;;;;;;;7.50;4.22;;;20.60;1.00;;;;;;7364965;19;20348;-68
2023/05/29 08:22:23;;;;;;;7.82;4.32;;;20.80;1.00;;;;;;7369393;19;20014;-68
2023/05/29 08:24:52;;;;;;;6.55;3.80;;;20.50;1.00;;;;;;7370480;19;20017;-68
2023/05/29 08:27:22;;;;;;;5.90;3.78;;;20.30;1.00;;;;;;7368018;19;20039;-68
2023/05/29 08:29:55;;;;;;;5.28;3.80;;;20.60;1.00;;;;;;7367746;19;20034;-68
2023/05/29 08:32:25;;;;;;;5.22;3.47;;;21.00;1.00;;;;;;7386066;19;20022;-72
2023/05/29 08:34:56;;;;;;;8.13;4.07;;;21.40;1.00;;;;;;7387140;19;20029;-68
2023/05/29 08:37:26;;;;;;;7.95;4.38;;;20.70;1.00;;;;;;7365918;19;20018;-68
2023/05/29 08:39:57;;;;;;;7.82;3.80;;;20.90;1.00;;;;;;7364249;19;20520;-68
2023/05/29 08:42:33;;;;;;;6.75;3.85;;;21.30;1.00;;;;;;7368094;19;20082;-68
2023/05/29 08:45:07;;;;;;;5.00;3.38;;;21.20;1.00;;;;;;7368790;19;20502;-68
2023/05/29 08:47:38;;;;;;;8.20;3.50;;;21.50;1.00;;;;;;7369340;19;20014;-68
2023/05/29 08:50:10;;;;;;;10.27;3.83;;;21.20;1.00;;;;;;7385063;19;20355;-68
2023/05/29 08:52:41;;;;;;;8.27;3.88;;;21.30;1.00;;;;;;7363940;19;20097;-68
2023/05/29 08:55:11;;;;;;;5.32;3.42;;;21.30;1.00;;;;;;7364346;19;20078;-68
2023/05/29 08:57:43;;;;;;;5.40;3.58;;;21.30;1.00;;;;;;7366014;19;20458;-68
2023/05/29 09:00:20;;;;;;;8.55;3.95;;;21.50;1.00;;;;;;7364308;19;20053;-68
2023/05/29 09:02:51;;;;;;;7.28;4.30;;;21.20;1.00;;;;;;7364776;19;20071;-68
2023/05/29 09:05:21;;;;;;;5.88;3.55;;;21.70;1.00;;;;;;7384859;19;20015;-68
2023/05/29 09:07:52;;;;;;;5.43;3.92;;;21.40;1.00;;;;;;7367329;19;20029;-68
2023/05/29 09:10:22;;;;;;;6.13;3.53;;;21.40;1.00;;;;;;7362430;19;20015;-68
2023/05/29 09:12:52;;;;;;;7.40;3.83;;;21.60;1.00;;;;;;7365133;19;20018;-69
2023/05/29 09:15:26;;;;;;;5.32;3.67;;;21.90;1.00;;;;;;7363795;19;20081;-68
2023/05/29 09:17:57;;;;;;;7.23;4.17;;;21.70;1.00;;;;;;7365259;19;20014;-68
2023/05/29 09:20:28;;;;;;;6.43;3.88;;;21.80;1.00;;;;;;7362032;19;20024;-69
2023/05/29 09:23:01;;;;;;;8.20;3.70;;;21.60;1.00;;;;;;7385849;19;20518;-67
2023/05/29 09:25:33;;;;;;;5.95;3.80;;;22.00;1.00;;;;;;7358991;19;20085;-68
2023/05/29 09:28:05;;;;;;;5.75;3.80;;;22.30;1.00;;;;;;7364534;19;20044;-68
2023/05/29 09:30:41;;;;;;;6.90;4.10;;;22.70;1.00;;;;;;7364582;19;20082;-68
2023/05/29 09:33:29;;;;;;;6.05;3.78;;;22.10;1.00;;;;;;7363877;19;20015;-68
2023/05/29 09:35:59;;;;;;;6.25;3.47;;;22.50;1.00;;;;;;7363870;19;20136;-68
2023/05/29 09:38:29;;;;;;;6.43;3.90;;;22.60;1.00;;;;;;7365663;19;20466;-68
2023/05/29 09:41:24;;;;;;;8.00;4.18;;;22.90;1.00;;;;;;7387153;19;20026;-68
2023/05/29 09:43:55;;;;;;;7.18;3.45;;;22.80;1.00;;;;;;7366757;19;20025;-68
2023/05/29 09:46:28;;;;;;;8.93;4.05;;;22.30;1.00;;;;;;7362541;19;20484;-68
2023/05/29 09:49:04;;;;;;;6.88;3.50;;;22.90;1.00;;;;;;7364112;19;20037;-68
2023/05/29 09:51:34;;;;;;;6.97;3.75;;;23.00;1.00;;;;;;7363464;19;20014;-68
2023/05/29 09:54:16;;;;;;;6.20;3.63;;;23.00;1.00;;;;;;7363184;19;20018;-68
2023/05/29 09:56:47;;;;;;;7.30;3.60;;;23.10;1.00;;;;;;7366313;19;20007;-68
2023/05/29 09:59:18;;;;;;;8.23;4.35;;;23.40;1.00;;;;;;7385726;19;20016;-68
2023/05/29 10:02:06;;;;;;;8.50;3.67;;;23.90;1.00;;;;;;7362639;19;20042;-68
2023/05/29 10:04:38;;;;;;;5.13;3.50;;;24.00;1.00;;;;;;7361658;19;20066;-68
2023/05/29 10:07:12;;;;;;;10.38;3.60;;;23.60;1.00;;;;;;7363730;19;20014;-68
2023/05/29 10:09:47;;;;;;;10.52;3.67;;;23.40;1.00;;;;;;7361645;19;20014;-68
2023/05/29 10:12:21;;;;;;;6.57;3.85;;;23.40;1.00;;;;;;7362195;19;20785;-69
2023/05/29 10:14:51;;;;;;;;;;;24.00;1.00;;;;;;7362398;19;20055;-69
2023/05/29 10:17:28;;;;;;;7.75;3.50;;;24.20;1.00;;;;;;7384123;19;19945;-69
2023/05/29 10:20:03;;;;;;;6.90;3.53;;;23.60;1.00;;;;;;7360394;19;20010;-69
2023/05/29 10:22:34;;;;;;;5.50;3.28;;;23.50;1.00;;;;;;7361981;19;20051;-68
2023/05/29 10:25:05;;;;;;;5.55;3.38;;;23.90;1.00;;;;;;7360916;19;20134;-68
2023/05/29 10:27:36;;;;;;;7.05;3.55;;;23.60;1.00;;;;;;7362064;19;20031;-68
2023/05/29 10:30:12;;;;;;;7.03;3.42;;;23.40;1.00;;;;;;7363110;19;20042;-68
2023/05/29 10:32:58;;;;;;;6.18;3.97;;;23.70;1.00;;;;;;7361773;19;20022;-68
2023/05/29 10:35:34;;;;;;;7.75;3.28;;;23.80;1.00;;;;;;7363782;19;20038;-69
2023/05/29 10:38:12;;;;;;;5.95;3.10;;;23.80;1.00;;;;;;7384124;19;20043;-69
2023/05/29 10:40:42;;;;;;;5.55;3.35;;;24.10;1.00;;;;;;7361751;19;20374;-68
2023/05/29 10:43:33;;;;;;;6.13;3.20;;;24.10;1.00;;;;;;7361479;19;20090;-68
2023/05/29 10:46:04;;;;;;;6.75;3.42;;;24.10;1.00;;;;;;7362031;19;20058;-68
2023/05/29 10:48:46;;;;;;;6.47;3.40;;;24.00;1.00;;;;;;7360367;19;20106;-68
2023/05/29 10:51:31;;;;;;;8.85;3.10;;;24.40;1.00;;;;;;7360251;19;20085;-69
2023/05/29 10:54:01;;;;;;;;;;;24.60;1.00;;;;;;7361899;19;20035;-69
2023/05/29 10:56:32;;;;;;;4.55;3.15;;;24.30;1.00;;;;;;7364246;19;19919;-68
2023/05/29 10:59:06;;;;;;;6.70;3.00;;;24.30;1.00;;;;;;7382799;19;20546;-69
2023/05/29 11:01:37;;;;;;;5.22;3.17;;;24.10;1.00;;;;;;7360372;19;20010;-68
2023/05/29 11:04:32;;;;;;;5.95;3.20;;;24.10;1.00;;;;;;7360893;19;20018;-68
2023/05/29 11:07:06;;;;;;;4.72;3.50;;;24.30;1.00;;;;;;7362385;19;20038;-68
2023/05/29 11:09:37;;;;;;;4.70;3.28;;;24.30;1.00;;;;;;7360461;19;20751;-69
2023/05/29 11:12:23;;;;;;;6.05;3.10;;;24.40;1.00;;;;;;7361773;19;20378;-67
2023/05/29 11:14:58;;;;;;;4.75;3.08;;;24.10;1.00;;;;;;7360586;19;20021;-68
2023/05/29 11:17:34;;;;;;;6.50;3.05;;;24.40;1.00;;;;;;7372070;19;20014;-68
2023/05/29 11:20:08;;;;;;;4.15;3.08;;;24.40;1.00;;;;;;7379149;19;20519;-68
2023/05/29 11:22:59;;;;;;;4.63;2.97;;;24.90;1.00;;;;;;7360221;19;20030;-68
2023/05/29 11:25:29;;;;;;;4.93;3.00;;;24.50;1.00;;;;;;7359216;19;20478;-68
2023/05/29 11:28:00;;;;;;;4.20;2.80;;;24.60;1.00;;;;;;7359595;19;20727;-68
2023/05/29 11:30:30;;;;;;;4.57;3.00;;;24.50;1.00;;;;;;7361570;19;20034;-68
2023/05/29 11:33:08;;;;;;;5.22;2.67;;;24.60;1.00;;;;;;7364155;19;20625;-68
2023/05/29 11:35:41;;;;;;;6.10;2.88;;;24.90;1.00;;;;;;7363475;19;20620;-68
2023/05/29 11:38:12;;;;;;;5.95;3.30;;;24.70;1.00;;;;;;7386126;19;20049;-68
2023/05/29 11:40:41;;;;;;;5.13;2.78;;;24.70;1.00;;;;;;7358083;19;20087;-69
2023/05/29 11:43:14;;;;;;;3.95;2.33;;;25.20;1.00;;;;;;7359804;19;20815;-68
2023/05/29 11:45:47;;;;;;;5.03;2.80;;;25.00;1.00;;;;;;7360652;19;20763;-68
2023/05/29 11:48:17;;;;;;;5.85;2.95;;;24.60;1.00;;;;;;7362962;19;20488;-69
2023/05/29 11:50:49;;;;;;;4.82;2.72;;;24.50;1.00;;;;;;7365313;19;20090;-69
2023/05/29 11:53:19;;;;;;;5.45;2.80;;;24.90;1.00;;;;;;7389329;19;20513;-68
2023/05/29 11:55:50;;;;;;;4.53;3.50;;;24.90;1.00;;;;;;7366931;19;20022;-68
2023/05/29 11:58:20;;;;;;;3.90;2.42;;;25.20;1.00;;;;;;7367240;19;20018;-68
2023/05/29 12:00:50;;;;;;;5.82;2.53;;;25.30;1.00;;;;;;7368276;19;20818;-68
2023/05/29 12:03:21;;;;;;;4.63;2.70;;;24.90;1.00;;;;;;7369657;19;20014;-68
2023/05/29 12:05:55;;;;;;;3.58;2.47;;;24.90;1.00;;;;;;7368107;19;20018;-68
2023/05/29 12:08:26;;;;;;;4.90;2.72;;;24.70;1.00;;;;;;7391032;19;20018;-68
2023/05/29 12:10:56;;;;;;;4.45;2.70;;;24.50;1.00;;;;;;7363785;19;20014;-68
2023/05/29 12:13:26;;;;;;;3.47;2.45;;;25.00;1.00;;;;;;7373167;19;20021;-68
2023/05/29 12:15:59;;;;;;;4.60;2.53;;;25.50;1.00;;;;;;7377065;19;20304;-69
2023/05/29 12:18:29;;;;;;;4.30;2.60;;;25.30;1.00;;;;;;7376085;19;20010;-68
2023/05/29 12:21:04;;;;;;;5.00;2.72;;;25.30;1.00;;;;;;7368563;19;20038;-69
2023/05/29 12:23:34;;;;;;;3.42;2.45;;;25.10;1.00;;;;;;7365225;19;20363;-69
2023/05/29 12:26:04;;;;;;;4.03;2.65;;;25.10;1.00;;;;;;7388678;19;20014;-69
2023/05/29 12:28:34;;;;;;;6.70;2.92;;;25.20;1.00;;;;;;7367699;19;20010;-69
2023/05/29 12:31:04;;;;;;;3.33;2.50;;;25.00;1.00;;;;;;7367401;19;20374;-69
2023/05/29 12:33:35;;;;;;;4.75;2.60;;;24.90;1.00;;;;;;7367575;19;20011;-69
2023/05/29 12:36:10;;;;;;;5.93;2.80;;;25.00;1.00;;;;;;7366822;19;20010;-69
2023/05/29 12:38:50;;;;;;;3.80;2.58;;;24.90;1.00;;;;;;7365565;19;20019;-69
2023/05/29 12:41:30;;;;;;;6.65;3.10;;;25.30;1.00;;;;;;7383757;19;20600;-69
2023/05/29 12:44:01;;;;;;;4.78;2.78;;;25.30;1.00;;;;;;7365286;19;20028;-69
2023/05/29 12:46:37;;;;;;;4.20;2.78;;;25.50;1.00;;;;;;7365612;19;20077;-68
2023/05/29 12:49:15;;;;;;;3.80;2.85;;;25.50;1.00;;;;;;7363687;19;20354;-68
2023/05/29 12:51:48;;;;;;;4.50;2.83;;;25.60;1.00;;;;;;7364992;19;20697;-68
2023/05/29 12:54:19;;;;;;;6.60;2.90;;;25.30;1.00;;;;;;7364297;19;20021;-68
2023/05/29 12:56:51;;;;;;;4.95;2.90;;;25.20;1.00;;;;;;7367887;19;20018;-68
2023/05/29 12:59:21;;;;;;;3.40;2.60;;;25.30;1.00;;;;;;7387047;19;21435;-68
2023/05/29 13:01:52;;;;;;;4.90;2.80;;;25.20;1.00;;;;;;7364541;19;20010;-67
2023/05/29 13:04:23;;;;;;;4.82;2.83;;;25.40;1.00;;;;;;7364397;19;20018;-68
2023/05/29 13:06:55;;;;;;;5.43;2.70;;;25.60;1.00;;;;;;7365496;19;20500;-68
2023/05/29 13:09:25;;;;;;;5.45;2.65;;;25.60;1.00;;;;;;7363816;19;20010;-68
2023/05/29 13:11:55;;;;;;;4.85;2.95;;;25.20;1.00;;;;;;7364720;19;20015;-68
2023/05/29 13:14:25;;;;;;;5.45;2.70;;;25.30;1.00;;;;;;7386123;19;20054;-67
2023/05/29 13:16:55;;;;;;;5.35;2.90;;;25.50;1.00;;;;;;7364774;19;20027;-68
2023/05/29 13:19:25;;;;;;;7.15;2.58;;;25.30;1.00;;;;;;7363887;19;20074;-67